Latest Weather Observations for Mount Hotham Airport

IDV60801

Issued at 2:33 am EST Monday 1 May 2017 (issued every 30 minutes, with the page automatically refreshed every 10 minutes)

About weather observations | Map of weather stations | Latest weather observations for VIC | Other Formats
Station Details ID: 083055 Name: MOUNT HOTHAM AIRPORT Lat: -37.05 Lon: 147.33 Height: 1295.4 m
Data from the previous 72 hours. | See also: Recent months at Mount Hotham Airport
Date/Time
EST
Temp
°C
App
Temp
°C
Dew
Point
°C
Rel
Hum
%
Delta-T
°C
Wind Press
QNH
hPa
Press
MSL
hPa
Rain since
9am
mm
Dir  Spd
km/h
Gust
km/h
Spd
kts
Gust
kts
01/02:30am 6.2 1.1 2.8 79 1.5 NNW 19 28 10 15 1018.6 - 0.0
01/02:00am 6.2 -0.6 3.2 81 1.4 NW 28 37 15 20 1018.6 - 0.0
01/01:30am 6.0 1.3 3.2 82 1.3 N 17 24 9 13 1018.9 - 0.0
01/01:00am 5.7 1.8 3.4 85 1.0 NNW 13 22 7 12 1019.1 - 0.0
01/12:30am 5.8 1.8 2.8 81 1.3 NNW 13 17 7 9 1019.4 - 0.0
01/12:00am 5.1 0.8 3.0 86 0.9 NW 15 22 8 12 1019.5 1020.7 0.0
 
Date/Time
EST
Temp
°C
App
Temp
°C
Dew
Point
°C
Rel
Hum
%
Delta-T
°C
Wind Press
QNH
hPa
Press
MSL
hPa
Rain since
9am
mm
Dir  Spd
km/h
Gust
km/h
Spd
kts
Gust
kts
30/11:30pm 5.7 1.1 3.5 86 1.0 NNW 17 22 9 12 1019.8 - 0.0
30/11:00pm 5.6 1.0 3.8 88 0.8 NNW 17 22 9 12 1020.1 - 0.0
30/10:30pm 4.4 1.9 3.8 96 0.3 NNW 6 7 3 4 1020.5 - 0.0
30/10:00pm 4.4 1.4 4.0 97 0.2 N 9 11 5 6 1020.6 - 0.0
30/09:32pm 2.0 -0.8 1.9 99 0.0 NNW 6 7 3 4 1020.8 - 0.0
30/09:30pm 1.6 -1.3 1.3 98 0.1 NNW 6 9 3 5 1020.8 - 0.0
30/09:28pm 2.0 -0.8 1.9 99 0.0 NNW 6 7 3 4 1020.8 - 0.0
30/09:10pm 1.8 -0.8 1.1 95 0.3 NW 4 7 2 4 1021.0 - 0.0
30/09:06pm 1.8 -0.8 1.1 95 0.3 NW 4 7 2 4 1021.0 - 0.0
30/09:00pm 2.8 0.0 2.2 96 0.3 NW 6 7 3 4 1020.8 1020.2 0.0
30/08:30pm 4.7 1.0 4.6 99 0.0 N 13 15 7 8 1020.8 - 0.0
30/08:00pm 3.2 0.3 2.8 97 0.2 NNW 7 11 4 6 1021.0 - 0.0
30/07:30pm 3.9 1.1 2.9 93 0.4 NNW 7 11 4 6 1021.2 - 0.0
30/07:00pm 5.8 2.2 4.8 93 0.5 NNW 13 17 7 9 1021.3 - 0.0
30/06:30pm 6.0 3.2 5.0 93 0.5 NW 9 15 5 8 1021.4 - 0.0
30/06:00pm 6.5 3.6 4.7 88 0.8 NNW 9 11 5 6 1021.2 1020.6 0.0
30/05:30pm 7.8 5.0 5.1 83 1.3 NNW 9 11 5 6 1021.1 - 0.0
30/05:00pm 9.7 6.6 5.7 76 2.0 N 11 13 6 7 1021.0 - 0.0
30/04:30pm 11.3 8.3 5.8 69 2.8 N 11 15 6 8 1021.0 - 0.0
30/04:00pm 12.9 10.4 6.5 65 3.3 NNE 9 13 5 7 1020.8 - 0.0
30/03:30pm 13.7 11.3 7.2 65 3.4 NE 9 13 5 7 1021.1 - 0.0
30/03:00pm 14.5 12.6 7.5 63 3.7 NE 7 11 4 6 1021.1 1020.5 0.0
30/02:30pm 14.7 12.5 8.0 64 3.6 NE 9 13 5 7 1021.1 - 0.0
30/02:00pm 15.2 13.0 7.7 61 4.0 ENE 9 15 5 8 1021.2 - 0.0
30/01:30pm 15.2 12.7 6.7 57 4.4 NNE 9 15 5 8 1021.4 - 0.0
30/01:00pm 15.0 12.9 6.8 58 4.3 E 7 15 4 8 1021.8 - 0.0
30/12:30pm 15.0 12.8 6.3 56 4.5 N 7 11 4 6 1022.1 - 0.0
30/12:00pm 14.7 12.6 5.8 55 4.5 N 6 9 3 5 1022.4 1021.9 0.0
30/11:30am 14.1 12.1 6.2 59 4.1 N 6 11 3 6 1022.8 - 0.0
30/11:00am 12.6 10.6 6.2 65 3.3 SE 6 11 3 6 1023.1 - 0.0
30/10:30am 12.1 10.1 6.2 67 3.0 SE 6 7 3 4 1023.1 - 0.0
30/10:00am 10.5 8.3 5.3 70 2.6 SE 6 7 3 4 1023.2 - 0.0
30/09:30am 10.4 8.0 4.5 67 2.9 N 6 7 3 4 1023.2 - 0.0
30/09:00am 8.2 5.7 3.7 73 2.1 NNW 6 9 3 5 1023.2 1022.7 0.0
30/08:30am 6.3 3.8 4.8 90 0.7 NNW 7 9 4 5 1023.2 - 0.0
30/08:08am 3.8 0.7 3.7 99 0.0 NNW 9 11 5 6 1023.2 - 0.0
30/08:04am 3.8 0.7 3.7 99 0.0 NNW 9 11 5 6 1023.2 - 0.0
30/08:00am 3.4 0.2 3.3 99 0.0 NNW 9 9 5 5 1023.2 - 0.0
30/07:30am 1.7 -1.4 1.6 99 0.0 NW 7 9 4 5 1023.2 - 0.0
30/07:00am 1.8 -1.1 1.7 99 0.0 NNW 6 7 3 4 1023.1 - 0.0
30/06:30am 2.6 -0.3 2.5 99 0.0 NW 7 9 4 5 1023.0 - 0.0
30/06:00am 2.7 -0.2 2.6 99 0.0 NW 7 11 4 6 1023.0 1022.4 0.0
30/05:59am 2.7 -0.2 2.6 99 0.0 NW 7 11 4 6 1023.1 - 0.0
30/05:55am 2.7 -0.2 2.6 99 0.0 NW 7 11 4 6 1023.1 - 0.0
30/05:30am 3.4 0.6 3.3 99 0.0 NNW 7 11 4 6 1023.2 - 0.0
30/05:00am 3.8 1.3 3.7 99 0.0 NNW 6 7 3 4 1023.2 - 0.0
30/04:30am 4.0 1.5 3.9 99 0.0 NNW 6 7 3 4 1023.2 - 0.0
30/04:00am 4.4 2.0 4.1 98 0.1 NNW 6 9 3 5 1023.1 - 0.0
30/03:30am 4.7 2.3 4.3 97 0.2 NW 6 9 3 5 1023.2 - 0.0
30/03:00am 5.2 3.3 4.8 97 0.2 NE 4 9 2 5 1023.2 1022.7 0.0
30/02:30am 5.4 3.2 5.3 99 0.0 N 6 9 3 5 1023.3 - 0.0
30/02:00am 5.4 3.6 5.3 99 0.0 N 4 7 2 4 1023.3 - 0.0
30/01:30am 5.5 3.7 5.4 99 0.0 NW 4 6 2 3 1023.5 - 0.0
30/01:00am 5.6 4.2 5.5 99 0.0 NW 2 4 1 2 1023.5 - 0.0
30/12:30am 6.0 5.1 5.9 99 0.0 CALM 0 2 0 1 1023.6 - 0.0
30/12:24am 5.9 4.6 5.8 99 0.0 SE 2 6 1 3 1023.6 - 0.0
30/12:20am 5.9 4.6 5.8 99 0.0 SSE 2 6 1 3 1023.6 - 0.0
30/12:00am 5.9 4.6 5.8 99 0.0 SSE 2 6 1 3 1023.5 1022.9 0.0
 
Date/Time
EST
Temp
°C
App
Temp
°C
Dew
Point
°C
Rel
Hum
%
Delta-T
°C
Wind Press
QNH
hPa
Press
MSL
hPa
Rain since
9am
mm
Dir  Spd
km/h
Gust
km/h
Spd
kts
Gust
kts
29/11:51pm 5.7 4.3 5.6 99 0.0 NNE 2 6 1 3 1023.6 - 0.0
29/11:47pm 5.7 4.3 5.6 99 0.0 NE 2 6 1 3 1023.6 - 0.0
29/11:44pm 6.0 4.3 5.9 99 0.0 ENE 4 6 2 3 1023.6 - 0.0
29/11:40pm 6.0 4.3 5.9 99 0.0 ENE 4 6 2 3 1023.6 - 0.0
29/11:30pm 6.3 4.7 6.2 99 0.0 ENE 4 6 2 3 1023.6 - 0.0
29/11:18pm 6.2 4.9 6.1 99 0.0 NNE 2 6 1 3 1023.6 - 0.0
29/11:14pm 6.2 4.9 6.1 99 0.0 NNE 2 6 1 3 1023.6 - 0.0
29/11:00pm 5.9 4.6 5.8 99 0.0 WNW 2 4 1 2 1023.5 - 0.0
29/10:51pm 6.1 4.8 6.0 99 0.0 W 2 4 1 2 1023.6 - 0.0
29/10:47pm 6.1 4.8 6.0 99 0.0 W 2 4 1 2 1023.6 - 0.0
29/10:30pm 5.8 4.8 5.7 99 0.0 CALM 0 0 0 0 1023.7 - 0.0
29/10:00pm 5.3 4.2 5.2 99 0.0 CALM 0 4 0 2 1023.8 - 0.0
29/09:30pm 6.7 5.2 6.6 99 0.0 S 4 6 2 3 1023.9 - 0.0
29/09:24pm 6.9 5.0 6.8 99 0.0 SSE 6 6 3 3 1023.9 - 0.0
29/09:20pm 6.9 5.0 6.8 99 0.0 SSE 6 6 3 3 1023.9 - 0.0
29/09:15pm 7.5 5.8 7.4 99 0.1 S 6 6 3 3 1023.9 - 0.0
29/09:11pm 7.5 5.8 7.4 99 0.1 S 6 6 3 3 1023.9 - 0.0
29/09:00pm 7.6 6.3 7.5 99 0.1 SE 4 6 2 3 1023.8 1023.3 0.0
29/08:43pm 6.9 5.4 6.8 99 0.0 S 4 7 2 4 1023.7 - 0.0
29/08:39pm 6.9 5.4 6.8 99 0.0 S 4 7 2 4 1023.7 - 0.0
29/08:35pm 7.7 6.8 7.6 99 0.1 SSW 2 4 1 2 1023.6 - 0.0
29/08:31pm 7.7 6.8 7.6 99 0.1 SSW 2 4 1 2 1023.6 - 0.0
29/08:30pm 7.7 6.8 7.6 99 0.1 SSW 2 4 1 2 1023.6 - 0.0
29/08:18pm 8.1 6.9 8.0 99 0.1 SSE 4 6 2 3 1023.6 - 0.0
29/08:14pm 8.1 6.9 8.0 99 0.1 SSE 4 6 2 3 1023.6 - 0.0
29/08:00pm 8.2 7.4 8.1 99 0.1 S 2 2 1 1 1023.7 - 0.0
29/07:30pm 8.2 7.4 8.1 99 0.1 W 2 4 1 2 1023.6 - 0.0
29/07:00pm 8.4 6.8 8.0 97 0.2 ESE 6 7 3 4 1023.5 - 0.0
29/06:30pm 8.4 6.6 7.2 92 0.6 E 6 7 3 4 1023.2 - 0.0
29/06:00pm 9.1 7.2 7.5 90 0.8 SE 7 9 4 5 1022.9 1022.3 0.0
29/05:30pm 9.8 7.9 6.7 81 1.6 ESE 6 7 3 4 1022.5 - 0.0
29/05:00pm 11.1 8.6 6.5 73 2.3 S 9 13 5 7 1022.4 - 0.0
29/04:30pm 11.8 9.8 6.1 68 2.9 S 6 7 3 4 1022.2 - 0.0
29/04:00pm 12.2 9.5 5.4 63 3.4 S 9 15 5 8 1022.1 - 0.0
29/03:30pm 13.3 10.5 5.0 57 4.1 SSW 9 15 5 8 1021.9 - 0.0
29/03:00pm 13.8 10.9 4.9 55 4.4 WSW 9 15 5 8 1021.6 1021.0 0.0
29/02:30pm 13.8 10.9 4.9 55 4.4 SSW 9 19 5 10 1021.5 - 0.0
29/02:00pm 13.8 9.8 3.0 48 5.2 SSW 13 19 7 10 1021.4 - 0.0
29/01:30pm 14.4 10.7 4.7 52 4.8 SSW 13 17 7 9 1021.3 - 0.0
29/01:00pm 14.1 10.9 5.2 55 4.5 SW 11 19 6 10 1021.5 - 0.0
29/12:30pm 14.1 10.7 5.7 57 4.3 SSW 13 20 7 11 1021.8 - 0.0
29/12:00pm 13.5 9.1 4.9 56 4.3 SW 17 24 9 13 1021.9 1021.3 0.0
29/11:30am 13.6 10.5 5.7 59 4.0 S 11 17 6 9 1022.2 - 0.0
29/11:00am 12.9 10.2 5.8 62 3.6 WSW 9 24 5 13 1022.4 - 0.0
29/10:30am 11.8 9.0 5.2 64 3.3 SW 9 19 5 10 1022.5 - 0.0
29/10:00am 11.8 9.5 5.9 67 3.0 SW 7 15 4 8 1022.4 - 0.0
29/09:30am 10.7 7.6 5.7 71 2.5 W 11 17 6 9 1022.5 - 0.0
29/09:00am 9.6 6.9 5.4 75 2.1 SW 9 20 5 11 1022.5 1022.0 0.0
29/08:30am 8.9 6.6 5.5 79 1.7 SW 7 15 4 8 1022.4 - 0.0
29/08:00am 8.0 4.8 5.1 82 1.4 W 11 15 6 8 1022.1 - 0.0
29/07:30am 7.2 4.0 4.9 85 1.1 WSW 11 20 6 11 1021.6 - 0.0
29/07:00am 6.3 2.2 4.1 86 1.0 W 15 20 8 11 1021.3 - 0.0
29/06:30am 5.6 2.1 5.3 98 0.1 WSW 13 20 7 11 1021.0 - 0.0
29/06:00am 1.7 -1.5 1.0 95 0.3 W 7 11 4 6 1020.8 1020.2 0.0
29/05:30am 3.5 0.9 3.1 97 0.2 NNW 6 11 3 6 1021.1 - 0.0
29/05:00am 3.1 -0.2 2.4 95 0.3 WNW 9 13 5 7 1021.1 - 0.0
29/04:30am 2.5 -0.9 1.6 94 0.4 WNW 9 13 5 7 1021.2 - 0.0
29/04:00am 2.8 -0.1 1.3 90 0.6 W 6 7 3 4 1021.1 - 0.0
29/03:30am 4.6 -0.1 3.1 90 0.7 W 17 20 9 11 1020.8 - 0.0
29/03:00am 3.9 -0.9 2.6 91 0.6 WNW 17 22 9 12 1021.0 1020.3 0.0
29/02:30am 1.7 -2.0 0.1 89 0.6 NW 9 13 5 7 1021.5 - 0.0
29/02:00am 1.7 -1.9 0.4 91 0.5 NW 9 13 5 7 1021.9 - 0.0
29/01:30am 1.9 -1.4 0.1 88 0.7 NNW 7 9 4 5 1022.1 - 0.0
29/01:00am 2.6 0.1 1.4 92 0.5 N 4 6 2 3 1022.1 - 0.0
29/12:30am 1.1 -0.9 -0.2 91 0.5 CALM 0 2 0 1 1022.1 - 0.0
29/12:00am 2.6 -0.6 0.8 88 0.7 NNW 7 9 4 5 1022.2 1021.6 0.0
 
Date/Time
EST
Temp
°C
App
Temp
°C
Dew
Point
°C
Rel
Hum
%
Delta-T
°C
Wind Press
QNH
hPa
Press
MSL
hPa
Rain since
9am
mm
Dir  Spd
km/h
Gust
km/h
Spd
kts
Gust
kts
28/11:30pm 1.7 -0.8 -0.7 84 0.9 NW 2 7 1 4 1022.4 - 0.0
28/11:00pm 2.5 -0.5 1.0 90 0.6 NNW 6 11 3 6 1022.7 - 0.0
28/10:30pm 2.6 0.4 1.3 91 0.5 SE 2 6 1 3 1022.8 - 0.0
28/10:00pm 3.5 0.7 2.0 90 0.6 W 6 7 3 4 1022.8 - 0.0
28/09:30pm 3.0 0.5 1.4 89 0.7 SW 4 7 2 4 1023.0 - 0.0
28/09:00pm 4.3 1.3 1.8 84 1.1 NNW 7 7 4 4 1022.8 1022.2 0.0
28/08:30pm 3.9 1.5 2.3 89 0.7 NW 4 6 2 3 1022.9 - 0.0
28/08:00pm 3.7 -0.5 1.7 87 0.9 W 13 17 7 9 1022.8 - 0.0
28/07:30pm 4.1 0.7 2.1 87 0.9 NW 9 13 5 7 1022.8 - 0.0
28/07:00pm 4.4 1.2 2.9 90 0.7 W 9 11 5 6 1023.0 - 0.0
28/06:30pm 4.9 1.3 2.9 87 0.9 W 11 15 6 8 1022.7 - 0.0
28/06:00pm 5.7 2.6 1.6 75 1.8 W 7 11 4 6 1022.4 1021.9 0.0
28/05:30pm 8.2 4.7 3.5 72 2.2 WSW 11 15 6 8 1022.3 - 0.0
28/05:00pm 10.6 7.4 3.2 60 3.5 WSW 9 11 5 6 1022.2 - 0.0
28/04:30pm 12.5 9.8 3.5 54 4.3 WSW 7 9 4 5 1022.2 - 0.0
28/04:00pm 14.2 11.3 2.5 45 5.6 W 7 11 4 6 1022.2 - 0.0
28/03:30pm 14.6 11.8 2.2 43 5.9 W 6 11 3 6 1022.1 - 0.0
28/03:00pm 14.4 11.5 2.6 45 5.6 W 7 11 4 6 1022.2 1021.6 0.0
28/02:30pm 14.4 11.4 2.3 44 5.8 WSW 7 15 4 8 1022.2 - 0.0
28/02:00pm 14.0 10.9 1.6 43 5.8 WSW 7 15 4 8 1022.0 - 0.0
28/01:30pm 14.0 10.4 0.3 39 6.2 WSW 9 20 5 11 1022.2 - 0.0
28/01:00pm 13.8 10.4 1.8 44 5.6 S 9 15 5 8 1022.4 - 0.0
28/12:30pm 13.0 9.5 1.0 44 5.5 SSW 9 17 5 9 1022.8 - 0.0
28/12:00pm 12.8 9.5 0.2 42 5.6 SSE 7 11 4 6 1023.0 1022.6 0.0
28/11:30am 12.0 9.5 1.3 48 4.9 S 4 9 2 5 1023.2 - 0.0
28/11:00am 11.0 8.3 2.6 56 3.9 S 6 9 3 5 1023.5 - 0.0
28/10:30am 10.0 7.3 2.4 59 3.5 S 6 11 3 6 1023.7 - 0.0
28/10:00am 8.7 5.7 2.3 64 2.9 SW 7 13 4 7 1023.5 - 0.0
28/09:30am 7.5 4.9 3.4 75 1.9 SW 6 9 3 5 1023.6 - 0.0
28/09:00am 5.9 2.7 2.9 81 1.3 SSW 9 13 5 7 1023.6 1023.0 0.6
28/08:30am 4.9 2.9 4.5 97 0.2 SSW 4 7 2 4 1023.5 - 0.6
28/08:00am 2.9 1.4 2.8 99 0.0 CALM 0 4 0 2 1023.1 - 0.6
28/07:30am 1.1 -1.9 1.0 99 0.0 WNW 6 6 3 3 1022.5 - 0.6
28/07:00am 0.8 -2.2 0.7 99 0.0 WNW 6 7 3 4 1022.5 - 0.6
28/06:30am -0.1 -3.3 -0.2 99 0.0 WNW 6 11 3 6 1022.2 - 0.6
28/06:00am 0.2 -3.1 0.1 99 0.0 W 7 7 4 4 1021.9 1021.3 0.6
28/05:30am 0.5 -3.2 0.2 98 0.1 NW 9 9 5 5 1021.5 - 0.6
28/05:00am 1.0 -2.1 0.4 96 0.2 WNW 6 7 3 4 1021.3 - 0.6
28/04:30am 1.5 -1.5 0.9 96 0.2 WNW 6 7 3 4 1021.2 - 0.6
28/04:00am 1.6 -1.4 0.6 93 0.4 W 6 11 3 6 1020.8 - 0.6
28/03:30am 2.6 -0.8 1.6 93 0.4 SW 9 17 5 9 1021.1 - 0.6
28/03:00am 2.7 -1.1 1.5 92 0.5 WSW 11 17 6 9 1021.1 1020.5 0.6

Other Formats:

Comma delimited format used in spreadsheet applications
http://www.bom.gov.au/fwo/IDV60801/IDV60801.94905.axf

JavaScript Object Notation format (JSON) in row-major order
http://www.bom.gov.au/fwo/IDV60801/IDV60801.94905.json